sensor_id;sensor_type;location;lat;lon;timestamp;P1;durP1;ratioP1;P2;durP2;ratioP2
8042;SDS011;4064;48.132;11.366;2023-02-01T00:01:34;7.80;;;4.20;;
8042;SDS011;4064;48.132;11.366;2023-02-01T00:04:00;5.97;;;4.20;;
8042;SDS011;4064;48.132;11.366;2023-02-01T00:06:25;7.87;;;4.50;;
8042;SDS011;4064;48.132;11.366;2023-02-01T00:09:00;5.68;;;4.05;;
8042;SDS011;4064;48.132;11.366;2023-02-01T00:11:26;4.67;;;3.80;;
8042;SDS011;4064;48.132;11.366;2023-02-01T00:13:52;5.17;;;3.90;;
8042;SDS011;4064;48.132;11.366;2023-02-01T00:16:19;5.07;;;4.40;;
8042;SDS011;4064;48.132;11.366;2023-02-01T00:18:50;4.20;;;3.58;;
8042;SDS011;4064;48.132;11.366;2023-02-01T00:21:17;6.43;;;3.92;;
8042;SDS011;4064;48.132;11.366;2023-02-01T00:23:44;4.75;;;4.05;;
8042;SDS011;4064;48.132;11.366;2023-02-01T00:26:20;4.30;;;3.90;;
8042;SDS011;4064;48.132;11.366;2023-02-01T00:28:50;8.05;;;4.15;;
8042;SDS011;4064;48.132;11.366;2023-02-01T00:31:16;8.07;;;4.70;;
8042;SDS011;4064;48.132;11.366;2023-02-01T00:33:41;6.93;;;4.70;;
8042;SDS011;4064;48.132;11.366;2023-02-01T00:36:07;5.33;;;4.80;;
8042;SDS011;4064;48.132;11.366;2023-02-01T00:38:35;6.75;;;4.53;;
8042;SDS011;4064;48.132;11.366;2023-02-01T00:41:03;6.00;;;4.28;;
8042;SDS011;4064;48.132;11.366;2023-02-01T00:43:30;5.03;;;4.00;;
8042;SDS011;4064;48.132;11.366;2023-02-01T00:45:57;7.18;;;4.97;;
8042;SDS011;4064;48.132;11.366;2023-02-01T00:48:23;5.53;;;4.27;;
8042;SDS011;4064;48.132;11.366;2023-02-01T00:50:49;5.00;;;4.50;;
8042;SDS011;4064;48.132;11.366;2023-02-01T00:53:14;6.97;;;5.00;;
8042;SDS011;4064;48.132;11.366;2023-02-01T00:55:40;5.67;;;4.70;;
8042;SDS011;4064;48.132;11.366;2023-02-01T00:58:09;5.75;;;5.20;;
8042;SDS011;4064;48.132;11.366;2023-02-01T01:00:34;11.77;;;5.50;;
8042;SDS011;4064;48.132;11.366;2023-02-01T01:03:00;7.20;;;4.50;;
8042;SDS011;4064;48.132;11.366;2023-02-01T01:05:26;7.50;;;5.13;;
8042;SDS011;4064;48.132;11.366;2023-02-01T01:07:52;5.90;;;4.90;;
8042;SDS011;4064;48.132;11.366;2023-02-01T01:10:18;6.63;;;5.57;;
8042;SDS011;4064;48.132;11.366;2023-02-01T01:12:44;8.20;;;6.00;;
8042;SDS011;4064;48.132;11.366;2023-02-01T01:15:10;7.10;;;6.40;;
8042;SDS011;4064;48.132;11.366;2023-02-01T01:17:36;7.97;;;5.20;;
8042;SDS011;4064;48.132;11.366;2023-02-01T01:20:02;6.60;;;5.37;;
8042;SDS011;4064;48.132;11.366;2023-02-01T01:22:28;6.78;;;5.53;;
8042;SDS011;4064;48.132;11.366;2023-02-01T01:24:54;8.70;;;5.57;;
8042;SDS011;4064;48.132;11.366;2023-02-01T01:27:20;6.90;;;6.17;;
8042;SDS011;4064;48.132;11.366;2023-02-01T01:29:48;6.28;;;5.68;;
8042;SDS011;4064;48.132;11.366;2023-02-01T01:32:15;6.93;;;5.20;;
8042;SDS011;4064;48.132;11.366;2023-02-01T01:34:41;9.00;;;6.90;;
8042;SDS011;4064;48.132;11.366;2023-02-01T01:37:06;8.23;;;6.80;;
8042;SDS011;4064;48.132;11.366;2023-02-01T01:39:32;6.60;;;5.90;;
8042;SDS011;4064;48.132;11.366;2023-02-01T01:41:58;7.57;;;5.83;;
8042;SDS011;4064;48.132;11.366;2023-02-01T01:47:25;8.40;;;7.30;;
8042;SDS011;4064;48.132;11.366;2023-02-01T01:49:53;7.57;;;6.80;;
8042;SDS011;4064;48.132;11.366;2023-02-01T01:52:19;8.27;;;6.18;;
8042;SDS011;4064;48.132;11.366;2023-02-01T01:54:47;8.30;;;6.90;;
8042;SDS011;4064;48.132;11.366;2023-02-01T01:57:17;8.27;;;6.70;;
8042;SDS011;4064;48.132;11.366;2023-02-01T01:59:50;9.13;;;7.57;;
8042;SDS011;4064;48.132;11.366;2023-02-01T02:02:23;8.95;;;7.13;;
8042;SDS011;4064;48.132;11.366;2023-02-01T02:04:49;8.77;;;7.55;;
8042;SDS011;4064;48.132;11.366;2023-02-01T02:07:16;15.30;;;8.90;;
8042;SDS011;4064;48.132;11.366;2023-02-01T02:09:46;9.18;;;7.32;;
8042;SDS011;4064;48.132;11.366;2023-02-01T02:12:11;8.10;;;6.60;;
8042;SDS011;4064;48.132;11.366;2023-02-01T02:14:37;10.67;;;7.67;;
8042;SDS011;4064;48.132;11.366;2023-02-01T02:26:18;9.07;;;7.57;;
8042;SDS011;4064;48.132;11.366;2023-02-01T02:34:28;6.72;;;6.00;;
8042;SDS011;4064;48.132;11.366;2023-02-01T02:37:23;8.63;;;6.63;;
8042;SDS011;4064;48.132;11.366;2023-02-01T02:48:38;8.40;;;7.03;;
8042;SDS011;4064;48.132;11.366;2023-02-01T02:51:21;7.85;;;6.80;;
8042;SDS011;4064;48.132;11.366;2023-02-01T02:54:15;8.50;;;6.70;;
8042;SDS011;4064;48.132;11.366;2023-02-01T02:57:17;10.25;;;6.38;;
8042;SDS011;4064;48.132;11.366;2023-02-01T03:00:12;7.78;;;5.75;;
8042;SDS011;4064;48.132;11.366;2023-02-01T03:02:58;7.50;;;5.80;;
8042;SDS011;4064;48.132;11.366;2023-02-01T03:05:44;8.02;;;6.60;;
8042;SDS011;4064;48.132;11.366;2023-02-01T03:08:12;9.98;;;6.88;;
8042;SDS011;4064;48.132;11.366;2023-02-01T03:11:05;8.45;;;6.30;;
8042;SDS011;4064;48.132;11.366;2023-02-01T03:16:39;6.70;;;5.45;;
8042;SDS011;4064;48.132;11.366;2023-02-01T03:21:44;7.40;;;5.97;;
8042;SDS011;4064;48.132;11.366;2023-02-01T03:24:22;7.00;;;5.72;;
8042;SDS011;4064;48.132;11.366;2023-02-01T03:26:58;7.95;;;6.25;;
8042;SDS011;4064;48.132;11.366;2023-02-01T03:29:40;9.00;;;6.28;;
8042;SDS011;4064;48.132;11.366;2023-02-01T03:32:15;8.93;;;6.00;;
8042;SDS011;4064;48.132;11.366;2023-02-01T03:34:41;6.53;;;5.25;;
8042;SDS011;4064;48.132;11.366;2023-02-01T03:37:09;10.80;;;6.25;;
8042;SDS011;4064;48.132;11.366;2023-02-01T03:39:53;7.10;;;5.50;;
8042;SDS011;4064;48.132;11.366;2023-02-01T03:42:33;7.43;;;5.90;;
8042;SDS011;4064;48.132;11.366;2023-02-01T03:45:06;9.48;;;6.55;;
8042;SDS011;4064;48.132;11.366;2023-02-01T03:47:39;6.88;;;5.55;;
8042;SDS011;4064;48.132;11.366;2023-02-01T03:50:09;6.88;;;5.93;;
8042;SDS011;4064;48.132;11.366;2023-02-01T03:52:40;7.47;;;6.30;;
8042;SDS011;4064;48.132;11.366;2023-02-01T03:55:09;6.22;;;5.63;;
8042;SDS011;4064;48.132;11.366;2023-02-01T03:57:39;6.68;;;5.75;;
8042;SDS011;4064;48.132;11.366;2023-02-01T04:00:22;7.18;;;5.95;;
8042;SDS011;4064;48.132;11.366;2023-02-01T04:02:49;8.30;;;5.85;;
8042;SDS011;4064;48.132;11.366;2023-02-01T04:05:15;6.93;;;6.00;;
8042;SDS011;4064;48.132;11.366;2023-02-01T04:07:41;7.57;;;6.50;;
8042;SDS011;4064;48.132;11.366;2023-02-01T04:10:07;7.82;;;5.60;;
8042;SDS011;4064;48.132;11.366;2023-02-01T04:12:34;9.13;;;7.00;;
8042;SDS011;4064;48.132;11.366;2023-02-01T04:14:59;8.60;;;6.17;;
8042;SDS011;4064;48.132;11.366;2023-02-01T04:17:25;9.03;;;7.10;;
8042;SDS011;4064;48.132;11.366;2023-02-01T04:19:51;6.30;;;5.60;;
8042;SDS011;4064;48.132;11.366;2023-02-01T04:22:17;8.05;;;6.43;;
8042;SDS011;4064;48.132;11.366;2023-02-01T04:24:42;5.90;;;5.30;;
8042;SDS011;4064;48.132;11.366;2023-02-01T04:27:08;7.10;;;6.37;;
8042;SDS011;4064;48.132;11.366;2023-02-01T04:29:34;8.33;;;6.10;;
8042;SDS011;4064;48.132;11.366;2023-02-01T04:31:59;6.10;;;5.50;;
8042;SDS011;4064;48.132;11.366;2023-02-01T04:34:25;7.37;;;6.53;;
8042;SDS011;4064;48.132;11.366;2023-02-01T04:36:54;8.33;;;5.83;;
8042;SDS011;4064;48.132;11.366;2023-02-01T04:39:19;6.93;;;5.72;;
8042;SDS011;4064;48.132;11.366;2023-02-01T04:41:45;7.03;;;6.20;;
8042;SDS011;4064;48.132;11.366;2023-02-01T04:44:15;6.03;;;5.40;;
8042;SDS011;4064;48.132;11.366;2023-02-01T04:46:42;6.57;;;5.90;;
8042;SDS011;4064;48.132;11.366;2023-02-01T04:49:08;6.90;;;6.20;;
8042;SDS011;4064;48.132;11.366;2023-02-01T04:51:34;11.63;;;6.85;;
8042;SDS011;4064;48.132;11.366;2023-02-01T04:54:01;9.25;;;7.05;;
8042;SDS011;4064;48.132;11.366;2023-02-01T04:56:30;9.98;;;5.28;;
8042;SDS011;4064;48.132;11.366;2023-02-01T04:58:56;7.70;;;6.00;;
8042;SDS011;4064;48.132;11.366;2023-02-01T05:01:22;8.00;;;6.37;;
8042;SDS011;4064;48.132;11.366;2023-02-01T05:03:49;7.63;;;6.35;;
8042;SDS011;4064;48.132;11.366;2023-02-01T05:06:15;7.00;;;6.30;;
8042;SDS011;4064;48.132;11.366;2023-02-01T05:08:40;8.50;;;7.57;;
8042;SDS011;4064;48.132;11.366;2023-02-01T05:11:06;7.70;;;6.53;;
8042;SDS011;4064;48.132;11.366;2023-02-01T05:13:52;7.80;;;6.22;;
8042;SDS011;4064;48.132;11.366;2023-02-01T05:16:17;9.10;;;6.87;;
8042;SDS011;4064;48.132;11.366;2023-02-01T05:18:43;8.40;;;7.17;;
8042;SDS011;4064;48.132;11.366;2023-02-01T05:21:08;7.67;;;6.87;;
8042;SDS011;4064;48.132;11.366;2023-02-01T05:23:34;8.63;;;6.90;;
8042;SDS011;4064;48.132;11.366;2023-02-01T05:26:22;9.40;;;6.93;;
8042;SDS011;4064;48.132;11.366;2023-02-01T05:28:48;8.50;;;6.40;;
8042;SDS011;4064;48.132;11.366;2023-02-01T05:31:14;8.77;;;6.13;;
8042;SDS011;4064;48.132;11.366;2023-02-01T05:33:39;12.47;;;7.10;;
8042;SDS011;4064;48.132;11.366;2023-02-01T05:36:05;8.80;;;7.40;;
8042;SDS011;4064;48.132;11.366;2023-02-01T05:38:31;8.37;;;6.20;;
8042;SDS011;4064;48.132;11.366;2023-02-01T05:40:56;7.57;;;6.80;;
8042;SDS011;4064;48.132;11.366;2023-02-01T05:43:22;8.80;;;7.03;;
8042;SDS011;4064;48.132;11.366;2023-02-01T05:45:48;8.67;;;6.87;;
8042;SDS011;4064;48.132;11.366;2023-02-01T05:48:13;9.10;;;6.10;;
8042;SDS011;4064;48.132;11.366;2023-02-01T05:50:39;8.20;;;7.20;;
8042;SDS011;4064;48.132;11.366;2023-02-01T05:53:05;8.23;;;6.30;;
8042;SDS011;4064;48.132;11.366;2023-02-01T05:55:31;8.30;;;6.57;;
8042;SDS011;4064;48.132;11.366;2023-02-01T05:57:56;7.82;;;6.90;;
8042;SDS011;4064;48.132;11.366;2023-02-01T06:00:22;7.93;;;6.40;;
8042;SDS011;4064;48.132;11.366;2023-02-01T06:02:48;6.57;;;5.33;;
8042;SDS011;4064;48.132;11.366;2023-02-01T06:05:14;7.50;;;6.30;;
8042;SDS011;4064;48.132;11.366;2023-02-01T06:07:40;6.23;;;5.57;;
8042;SDS011;4064;48.132;11.366;2023-02-01T06:10:05;7.50;;;5.50;;
8042;SDS011;4064;48.132;11.366;2023-02-01T06:12:31;5.77;;;5.17;;
8042;SDS011;4064;48.132;11.366;2023-02-01T06:14:57;8.00;;;5.90;;
8042;SDS011;4064;48.132;11.366;2023-02-01T06:17:24;9.00;;;6.70;;
8042;SDS011;4064;48.132;11.366;2023-02-01T06:19:50;8.13;;;6.15;;
8042;SDS011;4064;48.132;11.366;2023-02-01T06:22:16;9.73;;;7.97;;
8042;SDS011;4064;48.132;11.366;2023-02-01T06:24:42;8.67;;;6.57;;
8042;SDS011;4064;48.132;11.366;2023-02-01T06:27:08;11.68;;;7.40;;
8042;SDS011;4064;48.132;11.366;2023-02-01T06:29:34;7.82;;;6.50;;
8042;SDS011;4064;48.132;11.366;2023-02-01T06:32:00;8.00;;;6.50;;
8042;SDS011;4064;48.132;11.366;2023-02-01T06:34:26;7.23;;;5.67;;
8042;SDS011;4064;48.132;11.366;2023-02-01T06:36:52;8.47;;;6.97;;
8042;SDS011;4064;48.132;11.366;2023-02-01T06:39:18;7.78;;;6.03;;
8042;SDS011;4064;48.132;11.366;2023-02-01T06:41:47;7.57;;;6.67;;
8042;SDS011;4064;48.132;11.366;2023-02-01T06:44:13;8.15;;;6.93;;
8042;SDS011;4064;48.132;11.366;2023-02-01T06:46:40;9.00;;;6.55;;
8042;SDS011;4064;48.132;11.366;2023-02-01T06:49:05;7.63;;;5.73;;
8042;SDS011;4064;48.132;11.366;2023-02-01T06:51:31;7.17;;;6.30;;
8042;SDS011;4064;48.132;11.366;2023-02-01T06:53:57;6.57;;;5.87;;
8042;SDS011;4064;48.132;11.366;2023-02-01T06:56:22;6.10;;;5.00;;
8042;SDS011;4064;48.132;11.366;2023-02-01T06:58:48;8.90;;;5.20;;
8042;SDS011;4064;48.132;11.366;2023-02-01T07:01:14;5.80;;;5.00;;
8042;SDS011;4064;48.132;11.366;2023-02-01T07:03:41;5.80;;;4.88;;
8042;SDS011;4064;48.132;11.366;2023-02-01T07:06:07;7.07;;;5.05;;
8042;SDS011;4064;48.132;11.366;2023-02-01T07:08:35;6.82;;;5.18;;
8042;SDS011;4064;48.132;11.366;2023-02-01T07:11:05;6.95;;;5.03;;
8042;SDS011;4064;48.132;11.366;2023-02-01T07:13:33;7.22;;;5.00;;
8042;SDS011;4064;48.132;11.366;2023-02-01T07:16:03;6.97;;;4.63;;
8042;SDS011;4064;48.132;11.366;2023-02-01T07:18:31;7.60;;;5.25;;
8042;SDS011;4064;48.132;11.366;2023-02-01T07:20:57;6.65;;;4.90;;
8042;SDS011;4064;48.132;11.366;2023-02-01T07:23:24;4.55;;;4.25;;
8042;SDS011;4064;48.132;11.366;2023-02-01T07:25:54;7.30;;;4.22;;
8042;SDS011;4064;48.132;11.366;2023-02-01T07:28:20;5.72;;;4.57;;
8042;SDS011;4064;48.132;11.366;2023-02-01T07:30:46;6.30;;;4.63;;
8042;SDS011;4064;48.132;11.366;2023-02-01T07:33:17;8.40;;;5.25;;
8042;SDS011;4064;48.132;11.366;2023-02-01T07:35:46;6.20;;;4.30;;
8042;SDS011;4064;48.132;11.366;2023-02-01T07:38:13;5.25;;;4.72;;
8042;SDS011;4064;48.132;11.366;2023-02-01T07:40:39;4.97;;;4.00;;
8042;SDS011;4064;48.132;11.366;2023-02-01T07:43:04;6.73;;;4.30;;
8042;SDS011;4064;48.132;11.366;2023-02-01T07:45:32;6.38;;;4.28;;
8042;SDS011;4064;48.132;11.366;2023-02-01T07:47:59;4.22;;;3.83;;
8042;SDS011;4064;48.132;11.366;2023-02-01T07:50:24;4.00;;;3.63;;
8042;SDS011;4064;48.132;11.366;2023-02-01T07:52:50;6.33;;;4.30;;
8042;SDS011;4064;48.132;11.366;2023-02-01T07:55:16;5.57;;;4.20;;
8042;SDS011;4064;48.132;11.366;2023-02-01T07:57:41;5.07;;;4.23;;
8042;SDS011;4064;48.132;11.366;2023-02-01T08:00:07;3.90;;;3.50;;
8042;SDS011;4064;48.132;11.366;2023-02-01T08:02:52;5.30;;;3.85;;
8042;SDS011;4064;48.132;11.366;2023-02-01T08:05:18;5.77;;;4.00;;
8042;SDS011;4064;48.132;11.366;2023-02-01T08:07:44;4.20;;;3.80;;
8042;SDS011;4064;48.132;11.366;2023-02-01T08:10:14;4.75;;;3.85;;
8042;SDS011;4064;48.132;11.366;2023-02-01T08:12:41;5.47;;;4.63;;
8042;SDS011;4064;48.132;11.366;2023-02-01T08:15:06;5.13;;;4.07;;
8042;SDS011;4064;48.132;11.366;2023-02-01T08:17:32;8.70;;;5.50;;
8042;SDS011;4064;48.132;11.366;2023-02-01T08:19:58;7.32;;;4.93;;
8042;SDS011;4064;48.132;11.366;2023-02-01T08:22:24;4.67;;;3.67;;
8042;SDS011;4064;48.132;11.366;2023-02-01T08:24:50;5.00;;;3.70;;
8042;SDS011;4064;48.132;11.366;2023-02-01T08:27:16;8.43;;;4.22;;
8042;SDS011;4064;48.132;11.366;2023-02-01T08:29:42;3.70;;;3.40;;
8042;SDS011;4064;48.132;11.366;2023-02-01T08:32:08;4.40;;;4.00;;
8042;SDS011;4064;48.132;11.366;2023-02-01T08:34:33;4.17;;;3.27;;
8042;SDS011;4064;48.132;11.366;2023-02-01T08:36:59;5.57;;;3.97;;
8042;SDS011;4064;48.132;11.366;2023-02-01T08:39:27;4.95;;;3.80;;
8042;SDS011;4064;48.132;11.366;2023-02-01T08:41:53;5.40;;;3.70;;
8042;SDS011;4064;48.132;11.366;2023-02-01T08:44:37;3.60;;;3.17;;
8042;SDS011;4064;48.132;11.366;2023-02-01T08:47:03;4.30;;;3.60;;
8042;SDS011;4064;48.132;11.366;2023-02-01T08:49:29;7.33;;;4.10;;
8042;SDS011;4064;48.132;11.366;2023-02-01T08:51:54;4.40;;;3.70;;
8042;SDS011;4064;48.132;11.366;2023-02-01T08:54:20;5.17;;;3.63;;
8042;SDS011;4064;48.132;11.366;2023-02-01T08:56:46;5.45;;;4.20;;
8042;SDS011;4064;48.132;11.366;2023-02-01T08:59:12;4.10;;;3.70;;
8042;SDS011;4064;48.132;11.366;2023-02-01T09:01:37;3.70;;;3.40;;
8042;SDS011;4064;48.132;11.366;2023-02-01T09:04:03;3.80;;;3.40;;
8042;SDS011;4064;48.132;11.366;2023-02-01T09:06:29;5.43;;;4.40;;
8042;SDS011;4064;48.132;11.366;2023-02-01T09:08:55;5.57;;;3.73;;
8042;SDS011;4064;48.132;11.366;2023-02-01T09:11:21;5.47;;;4.25;;
8042;SDS011;4064;48.132;11.366;2023-02-01T09:13:47;5.97;;;3.63;;
8042;SDS011;4064;48.132;11.366;2023-02-01T09:16:13;5.53;;;5.03;;
8042;SDS011;4064;48.132;11.366;2023-02-01T09:18:39;4.50;;;4.10;;
8042;SDS011;4064;48.132;11.366;2023-02-01T09:21:05;4.85;;;3.70;;
8042;SDS011;4064;48.132;11.366;2023-02-01T09:23:31;3.63;;;3.33;;
8042;SDS011;4064;48.132;11.366;2023-02-01T09:25:58;4.85;;;3.78;;
8042;SDS011;4064;48.132;11.366;2023-02-01T09:28:28;5.05;;;4.10;;
8042;SDS011;4064;48.132;11.366;2023-02-01T09:30:55;4.53;;;3.70;;
8042;SDS011;4064;48.132;11.366;2023-02-01T09:33:26;4.90;;;3.80;;
8042;SDS011;4064;48.132;11.366;2023-02-01T09:36:00;3.47;;;3.00;;
8042;SDS011;4064;48.132;11.366;2023-02-01T09:38:27;4.78;;;3.60;;
8042;SDS011;4064;48.132;11.366;2023-02-01T09:40:54;4.85;;;3.92;;
8042;SDS011;4064;48.132;11.366;2023-02-01T09:48:46;3.60;;;2.83;;
8042;SDS011;4064;48.132;11.366;2023-02-01T09:51:19;5.03;;;4.10;;
8042;SDS011;4064;48.132;11.366;2023-02-01T09:53:52;3.85;;;3.30;;
8042;SDS011;4064;48.132;11.366;2023-02-01T09:56:29;6.00;;;4.32;;
8042;SDS011;4064;48.132;11.366;2023-02-01T09:59:04;4.70;;;3.63;;
8042;SDS011;4064;48.132;11.366;2023-02-01T10:01:43;8.10;;;5.07;;
8042;SDS011;4064;48.132;11.366;2023-02-01T10:04:10;5.57;;;4.17;;
8042;SDS011;4064;48.132;11.366;2023-02-01T10:20:12;3.85;;;3.42;;
8042;SDS011;4064;48.132;11.366;2023-02-01T10:22:56;4.78;;;3.83;;
8042;SDS011;4064;48.132;11.366;2023-02-01T10:28:17;4.43;;;4.03;;
8042;SDS011;4064;48.132;11.366;2023-02-01T10:30:46;5.83;;;3.90;;
8042;SDS011;4064;48.132;11.366;2023-02-01T10:35:44;4.60;;;3.70;;
8042;SDS011;4064;48.132;11.366;2023-02-01T10:38:29;4.43;;;3.97;;
8042;SDS011;4064;48.132;11.366;2023-02-01T10:41:00;5.90;;;4.07;;
8042;SDS011;4064;48.132;11.366;2023-02-01T10:43:28;4.22;;;3.55;;
8042;SDS011;4064;48.132;11.366;2023-02-01T10:45:54;5.35;;;3.78;;
8042;SDS011;4064;48.132;11.366;2023-02-01T10:48:20;6.80;;;3.90;;
8042;SDS011;4064;48.132;11.366;2023-02-01T10:50:51;4.43;;;3.87;;
8042;SDS011;4064;48.132;11.366;2023-02-01T10:53:28;4.75;;;3.58;;
8042;SDS011;4064;48.132;11.366;2023-02-01T10:56:05;5.22;;;3.70;;
8042;SDS011;4064;48.132;11.366;2023-02-01T10:58:32;3.80;;;3.40;;
8042;SDS011;4064;48.132;11.366;2023-02-01T11:01:06;5.20;;;4.30;;
8042;SDS011;4064;48.132;11.366;2023-02-01T11:03:42;6.80;;;4.30;;
8042;SDS011;4064;48.132;11.366;2023-02-01T11:06:18;4.53;;;3.83;;
8042;SDS011;4064;48.132;11.366;2023-02-01T11:08:54;4.47;;;4.07;;
8042;SDS011;4064;48.132;11.366;2023-02-01T11:14:18;6.25;;;3.85;;
8042;SDS011;4064;48.132;11.366;2023-02-01T11:16:49;3.80;;;3.15;;
8042;SDS011;4064;48.132;11.366;2023-02-01T11:19:28;5.00;;;4.03;;
8042;SDS011;4064;48.132;11.366;2023-02-01T11:21:54;7.47;;;3.90;;
8042;SDS011;4064;48.132;11.366;2023-02-01T11:24:32;10.10;;;4.30;;
8042;SDS011;4064;48.132;11.366;2023-02-01T11:27:04;4.07;;;3.55;;
8042;SDS011;4064;48.132;11.366;2023-02-01T11:29:38;5.13;;;3.85;;
8042;SDS011;4064;48.132;11.366;2023-02-01T11:32:06;5.10;;;3.70;;
8042;SDS011;4064;48.132;11.366;2023-02-01T11:34:43;4.70;;;4.13;;
8042;SDS011;4064;48.132;11.366;2023-02-01T11:37:26;7.22;;;4.03;;
8042;SDS011;4064;48.132;11.366;2023-02-01T11:39:59;4.90;;;3.92;;
8042;SDS011;4064;48.132;11.366;2023-02-01T11:42:27;6.20;;;4.03;;
8042;SDS011;4064;48.132;11.366;2023-02-01T11:48:09;5.22;;;4.57;;
8042;SDS011;4064;48.132;11.366;2023-02-01T11:50:53;7.85;;;5.43;;
8042;SDS011;4064;48.132;11.366;2023-02-01T11:58:56;7.93;;;4.23;;
8042;SDS011;4064;48.132;11.366;2023-02-01T12:10:16;6.65;;;4.72;;
8042;SDS011;4064;48.132;11.366;2023-02-01T12:13:29;6.25;;;5.65;;
8042;SDS011;4064;48.132;11.366;2023-02-01T12:18:52;6.93;;;5.05;;
8042;SDS011;4064;48.132;11.366;2023-02-01T12:21:45;5.60;;;4.30;;
8042;SDS011;4064;48.132;11.366;2023-02-01T12:27:42;5.40;;;4.40;;
8042;SDS011;4064;48.132;11.366;2023-02-01T12:30:25;6.80;;;4.35;;
8042;SDS011;4064;48.132;11.366;2023-02-01T12:33:30;5.38;;;4.57;;
8042;SDS011;4064;48.132;11.366;2023-02-01T12:36:05;6.07;;;4.50;;
8042;SDS011;4064;48.132;11.366;2023-02-01T12:41:24;5.90;;;5.00;;
8042;SDS011;4064;48.132;11.366;2023-02-01T12:46:53;8.13;;;4.20;;
8042;SDS011;4064;48.132;11.366;2023-02-01T12:52:17;6.97;;;4.72;;
8042;SDS011;4064;48.132;11.366;2023-02-01T12:57:40;5.55;;;3.97;;
8042;SDS011;4064;48.132;11.366;2023-02-01T13:00:22;5.90;;;4.65;;
8042;SDS011;4064;48.132;11.366;2023-02-01T13:05:33;4.35;;;3.95;;
8042;SDS011;4064;48.132;11.366;2023-02-01T13:08:14;6.82;;;4.05;;
8042;SDS011;4064;48.132;11.366;2023-02-01T13:13:47;6.97;;;4.25;;
8042;SDS011;4064;48.132;11.366;2023-02-01T13:16:27;7.13;;;3.70;;
8042;SDS011;4064;48.132;11.366;2023-02-01T13:19:00;4.13;;;3.70;;
8042;SDS011;4064;48.132;11.366;2023-02-01T13:21:32;4.45;;;4.03;;
8042;SDS011;4064;48.132;11.366;2023-02-01T13:24:00;10.38;;;3.90;;
8042;SDS011;4064;48.132;11.366;2023-02-01T13:26:26;9.45;;;4.43;;
8042;SDS011;4064;48.132;11.366;2023-02-01T13:29:05;5.70;;;4.37;;
8042;SDS011;4064;48.132;11.366;2023-02-01T13:34:33;4.40;;;3.97;;
8042;SDS011;4064;48.132;11.366;2023-02-01T13:42:54;9.07;;;4.75;;
8042;SDS011;4064;48.132;11.366;2023-02-01T13:45:27;4.32;;;3.13;;
8042;SDS011;4064;48.132;11.366;2023-02-01T13:47:56;4.85;;;3.90;;
8042;SDS011;4064;48.132;11.366;2023-02-01T13:53:04;5.38;;;4.30;;
8042;SDS011;4064;48.132;11.366;2023-02-01T13:55:32;4.30;;;2.92;;
8042;SDS011;4064;48.132;11.366;2023-02-01T13:58:10;4.40;;;3.53;;
8042;SDS011;4064;48.132;11.366;2023-02-01T14:00:49;4.30;;;3.75;;
8042;SDS011;4064;48.132;11.366;2023-02-01T14:03:45;3.47;;;3.17;;
8042;SDS011;4064;48.132;11.366;2023-02-01T14:09:11;4.13;;;3.70;;
8042;SDS011;4064;48.132;11.366;2023-02-01T14:11:51;4.38;;;3.92;;
8042;SDS011;4064;48.132;11.366;2023-02-01T14:19:20;5.22;;;3.78;;
8042;SDS011;4064;48.132;11.366;2023-02-01T14:22:00;5.93;;;3.65;;
8042;SDS011;4064;48.132;11.366;2023-02-01T14:24:52;3.75;;;2.80;;
8042;SDS011;4064;48.132;11.366;2023-02-01T14:27:21;3.60;;;3.25;;
8042;SDS011;4064;48.132;11.366;2023-02-01T14:29:58;5.25;;;3.28;;
8042;SDS011;4064;48.132;11.366;2023-02-01T14:32:39;4.70;;;2.95;;
8042;SDS011;4064;48.132;11.366;2023-02-01T14:37:43;5.90;;;3.30;;
8042;SDS011;4064;48.132;11.366;2023-02-01T14:50:24;5.15;;;4.65;;
8042;SDS011;4064;48.132;11.366;2023-02-01T14:58:18;4.80;;;3.55;;
8042;SDS011;4064;48.132;11.366;2023-02-01T15:00:54;4.82;;;3.45;;
8042;SDS011;4064;48.132;11.366;2023-02-01T15:06:12;5.88;;;3.38;;
8042;SDS011;4064;48.132;11.366;2023-02-01T15:09:01;7.53;;;3.45;;
8042;SDS011;4064;48.132;11.366;2023-02-01T15:11:32;3.65;;;3.25;;
8042;SDS011;4064;48.132;11.366;2023-02-01T15:14:20;4.05;;;3.50;;
8042;SDS011;4064;48.132;11.366;2023-02-01T15:16:49;5.33;;;3.27;;
8042;SDS011;4064;48.132;11.366;2023-02-01T15:19:19;5.15;;;3.15;;
8042;SDS011;4064;48.132;11.366;2023-02-01T15:21:50;4.60;;;2.75;;
8042;SDS011;4064;48.132;11.366;2023-02-01T15:24:27;8.50;;;3.00;;
8042;SDS011;4064;48.132;11.366;2023-02-01T15:26:55;4.40;;;3.10;;
8042;SDS011;4064;48.132;11.366;2023-02-01T15:29:27;4.43;;;2.60;;
8042;SDS011;4064;48.132;11.366;2023-02-01T15:31:57;3.72;;;2.70;;
8042;SDS011;4064;48.132;11.366;2023-02-01T15:34:23;6.45;;;3.15;;
8042;SDS011;4064;48.132;11.366;2023-02-01T15:37:11;4.25;;;3.60;;
8042;SDS011;4064;48.132;11.366;2023-02-01T15:40:02;4.80;;;4.28;;
8042;SDS011;4064;48.132;11.366;2023-02-01T15:42:28;5.30;;;4.13;;
8042;SDS011;4064;48.132;11.366;2023-02-01T15:44:54;4.37;;;3.20;;
8042;SDS011;4064;48.132;11.366;2023-02-01T15:47:23;9.80;;;4.03;;
8042;SDS011;4064;48.132;11.366;2023-02-01T15:49:51;5.32;;;3.40;;
8042;SDS011;4064;48.132;11.366;2023-02-01T15:52:25;4.07;;;3.00;;
8042;SDS011;4064;48.132;11.366;2023-02-01T15:55:01;6.30;;;3.30;;
8042;SDS011;4064;48.132;11.366;2023-02-01T15:57:32;5.90;;;2.80;;
8042;SDS011;4064;48.132;11.366;2023-02-01T16:00:06;3.70;;;3.33;;
8042;SDS011;4064;48.132;11.366;2023-02-01T16:02:54;4.47;;;2.30;;
8042;SDS011;4064;48.132;11.366;2023-02-01T16:05:38;5.93;;;3.00;;
8042;SDS011;4064;48.132;11.366;2023-02-01T16:08:15;5.03;;;2.80;;
8042;SDS011;4064;48.132;11.366;2023-02-01T16:10:47;7.30;;;2.50;;
8042;SDS011;4064;48.132;11.366;2023-02-01T16:13:14;3.03;;;2.40;;
8042;SDS011;4064;48.132;11.366;2023-02-01T16:15:41;5.90;;;2.40;;
8042;SDS011;4064;48.132;11.366;2023-02-01T16:18:07;4.40;;;2.70;;
8042;SDS011;4064;48.132;11.366;2023-02-01T16:20:34;8.57;;;2.90;;
8042;SDS011;4064;48.132;11.366;2023-02-01T16:23:04;6.15;;;3.05;;
8042;SDS011;4064;48.132;11.366;2023-02-01T16:25:30;11.82;;;3.72;;
8042;SDS011;4064;48.132;11.366;2023-02-01T16:27:56;7.50;;;3.50;;
8042;SDS011;4064;48.132;11.366;2023-02-01T16:30:22;6.80;;;3.83;;
8042;SDS011;4064;48.132;11.366;2023-02-01T16:32:56;5.47;;;3.40;;
8042;SDS011;4064;48.132;11.366;2023-02-01T16:35:31;4.18;;;3.30;;
8042;SDS011;4064;48.132;11.366;2023-02-01T16:38:09;5.75;;;5.35;;
8042;SDS011;4064;48.132;11.366;2023-02-01T16:40:40;4.60;;;3.45;;
8042;SDS011;4064;48.132;11.366;2023-02-01T16:43:11;3.88;;;3.17;;
8042;SDS011;4064;48.132;11.366;2023-02-01T16:45:45;8.10;;;3.60;;
8042;SDS011;4064;48.132;11.366;2023-02-01T16:48:19;10.30;;;3.95;;
8042;SDS011;4064;48.132;11.366;2023-02-01T16:50:55;6.80;;;3.40;;
8042;SDS011;4064;48.132;11.366;2023-02-01T16:53:23;8.60;;;3.40;;
8042;SDS011;4064;48.132;11.366;2023-02-01T16:55:50;13.63;;;4.00;;
8042;SDS011;4064;48.132;11.366;2023-02-01T16:58:17;3.72;;;2.95;;
8042;SDS011;4064;48.132;11.366;2023-02-01T17:00:44;5.47;;;3.67;;
8042;SDS011;4064;48.132;11.366;2023-02-01T17:03:10;5.60;;;3.58;;
8042;SDS011;4064;48.132;11.366;2023-02-01T17:05:42;8.35;;;3.58;;
8042;SDS011;4064;48.132;11.366;2023-02-01T17:08:22;5.32;;;3.65;;
8042;SDS011;4064;48.132;11.366;2023-02-01T17:11:02;5.10;;;3.92;;
8042;SDS011;4064;48.132;11.366;2023-02-01T17:13:29;9.02;;;3.70;;
8042;SDS011;4064;48.132;11.366;2023-02-01T17:16:40;5.87;;;4.13;;
8042;SDS011;4064;48.132;11.366;2023-02-01T17:18:56;5.10;;;3.42;;
8042;SDS011;4064;48.132;11.366;2023-02-01T17:21:27;6.97;;;4.63;;
8042;SDS011;4064;48.132;11.366;2023-02-01T17:23:56;8.60;;;4.43;;
8042;SDS011;4064;48.132;11.366;2023-02-01T17:26:23;4.55;;;3.35;;
8042;SDS011;4064;48.132;11.366;2023-02-01T17:28:49;7.27;;;3.43;;
8042;SDS011;4064;48.132;11.366;2023-02-01T17:31:15;6.30;;;3.67;;
8042;SDS011;4064;48.132;11.366;2023-02-01T17:33:41;6.67;;;3.57;;
8042;SDS011;4064;48.132;11.366;2023-02-01T17:36:12;5.47;;;3.85;;
8042;SDS011;4064;48.132;11.366;2023-02-01T17:38:39;5.47;;;2.97;;
8042;SDS011;4064;48.132;11.366;2023-02-01T17:41:05;5.43;;;3.10;;